Time;durP1;ratioP1;P1;durP2;ratioP2;P2;SDS_P1;SDS_P2;PMS_P1;PMS_P2;Temp;Humidity;BMP_temperature;BMP_pressure;BME280_temperature;BME280_humidity;BME280_pressure;Samples;Min_cycle;Max_cycle;Signal;HPM_P1;HPM_P2
2024/03/06 00:00:22;;;;;;;;;;;;;;;-144.99;93.22;52460.31;5038013;28;20481;-74
2024/03/06 00:02:48;;;;;;;;;;;;;;;-144.99;93.24;52492.94;5043321;28;20023;-73
2024/03/06 00:05:15;;;;;;;;;;;;;;;-144.99;93.33;52529.63;5038312;28;19929;-74
2024/03/06 00:07:41;;;;;;;;;;;;;;;-144.99;93.26;52488.84;5050524;28;20463;-74
2024/03/06 00:10:08;;;;;;;;;;;;;;;-144.99;93.45;52501.09;5034931;28;19925;-74
2024/03/06 00:12:35;;;;;;;;;;;;;;;-144.99;93.87;52501.09;5039526;28;20464;-74
2024/03/06 00:15:02;;;;;;;;;;;;;;;-144.99;93.84;52558.16;5038701;28;19925;-74
2024/03/06 00:17:29;;;;;;;;;;;;;;;-144.99;93.97;52488.84;5034141;28;19935;-75
2024/03/06 00:19:56;;;;;;;;;;;;;;;-144.99;94.19;52488.84;5031280;28;20573;-75
2024/03/06 00:22:22;;;;;;;;;;;;;;;-144.99;93.99;52476.63;5026845;28;20028;-76
2024/03/06 00:24:49;;;;;;;;;;;;;;;-144.99;94.04;52476.63;5036304;28;19925;-75
2024/03/06 00:27:16;;;;;;;;;;;;;;;-144.99;93.88;52501.09;5037168;28;20020;-75
2024/03/06 00:29:42;;;;;;;;;;;;;;;-144.99;93.84;52480.72;5037095;28;19925;-74
2024/03/06 00:32:09;;;;;;;;;;;;;;;-144.99;93.86;52480.72;5045894;28;19932;-74
2024/03/06 00:34:36;;;;;;;;;;;;;;;-144.99;93.82;52468.47;5048600;28;20442;-74
2024/03/06 00:37:03;;;;;;;;;;;;;;;-144.99;93.89;52468.47;5046516;28;19967;-74
2024/03/06 00:39:29;;;;;;;;;;;;;;;-144.99;93.85;52537.78;5047811;28;20429;-75
2024/03/06 00:41:55;;;;;;;;;;;;;;;-144.99;93.96;52505.16;5052637;28;20019;-74
2024/03/06 00:44:22;;;;;;;;;;;;;;;-144.99;93.87;52484.78;5049583;28;20310;-74
2024/03/06 00:46:48;;;;;;;;;;;;;;;-144.99;93.78;52488.84;5061583;28;19925;-75
2024/03/06 00:49:15;;;;;;;;;;;;;;;-144.99;94.03;52509.25;5049507;28;20020;-75
2024/03/06 00:51:44;;;;;;;;;;;;;;;-144.99;94.11;52492.94;5056797;28;19925;-75
2024/03/06 00:54:10;;;;;;;;;;;;;;;-144.99;93.96;52480.72;5052807;28;19925;-76
2024/03/06 00:56:38;;;;;;;;;;;;;;;-144.99;93.95;52501.09;5047712;28;19964;-76
2024/03/06 00:59:04;;;;;;;;;;;;;;;-144.99;93.95;52517.41;5046236;28;19973;-74
2024/03/06 01:01:31;;;;;;;;;;;;;;;-144.99;93.94;52499.06;5025826;28;20022;-74
2024/03/06 01:03:57;;;;;;;;;;;;;;;-144.99;93.97;52515.34;5036505;28;20574;-74
2024/03/06 01:06:23;;;;;;;;;;;;;;;-144.99;93.80;52497.00;5035999;28;20430;-74
2024/03/06 01:08:51;;;;;;;;;;;;;;;-144.99;93.50;52501.09;5042865;28;20005;-74
2024/03/06 01:11:18;;;;;;;;;;;;;;;-144.99;93.53;52492.94;5035466;28;19975;-75
2024/03/06 01:13:44;;;;;;;;;;;;;;;-144.99;93.65;52468.47;5039512;28;20015;-74
2024/03/06 01:16:10;;;;;;;;;;;;;;;-144.99;93.71;52468.47;5031208;28;20071;-74
2024/03/06 01:18:37;;;;;;;;;;;;;;;-144.99;93.92;52521.47;5033122;28;19972;-74
2024/03/06 01:21:04;;;;;;;;;;;;;;;-144.99;93.90;52468.47;5035388;28;19925;-74
2024/03/06 01:23:30;;;;;;;;;;;;;;;-144.99;94.04;52517.41;5034451;28;19928;-74
2024/03/06 01:25:58;;;;;;;;;;;;;;;-144.99;94.01;52501.09;5034764;28;20397;-74
2024/03/06 01:28:25;;;;;;;;;;;;;;;-144.99;93.87;52537.78;5033231;28;19948;-75
2024/03/06 01:30:52;;;;;;;;;;;;;;;-144.99;93.87;52456.25;5029186;28;19925;-74
2024/03/06 01:33:18;;;;;;;;;;;;;;;-144.99;93.68;52505.16;5030028;28;19932;-75
2024/03/06 01:35:44;;;;;;;;;;;;;;;-144.99;93.57;52501.09;5032765;28;20365;-75
2024/03/06 01:38:11;;;;;;;;;;;;;;;-144.99;93.48;52501.09;5038872;28;19968;-74
2024/03/06 01:40:37;;;;;;;;;;;;;;;-144.99;93.22;52513.31;5038339;28;19925;-75
2024/03/06 01:43:05;;;;;;;;;;;;;;;-144.99;93.34;52519.44;5037019;28;20011;-74
2024/03/06 01:45:32;;;;;;;;;;;;;;;-144.99;93.29;52517.41;5038933;28;19979;-75
2024/03/06 01:47:59;;;;;;;;;;;;;;;-144.99;93.29;52472.56;5033703;28;20643;-74
2024/03/06 01:50:25;;;;;;;;;;;;;;;-144.99;93.26;52480.72;5032924;28;20636;-74
2024/03/06 01:52:52;;;;;;;;;;;;;;;-144.99;93.14;52450.13;5032146;28;20020;-75
2024/03/06 01:55:19;;;;;;;;;;;;;;;-144.99;93.28;52509.25;5045925;28;20119;-74
2024/03/06 01:57:45;;;;;;;;;;;;;;;-144.99;93.26;52464.41;5043318;28;19928;-73
2024/03/06 02:00:15;;;;;;;;;;;;;;;-144.99;93.17;52484.78;5042322;28;19963;-74
2024/03/06 02:02:42;;;;;;;;;;;;;;;-144.99;92.89;52505.16;5037077;28;19932;-74
2024/03/06 02:05:09;;;;;;;;;;;;;;;-144.99;92.91;52503.13;5037480;28;19925;-74
2024/03/06 02:07:37;;;;;;;;;;;;;;;-144.99;93.17;52484.78;5036060;28;19983;-74
2024/03/06 02:10:04;;;;;;;;;;;;;;;-144.99;93.18;52517.41;5035660;28;19995;-74
2024/03/06 02:12:30;;;;;;;;;;;;;;;-144.99;93.18;52488.84;5040084;28;19936;-74
2024/03/06 02:14:57;;;;;;;;;;;;;;;-144.99;93.22;52523.50;5042536;28;20018;-73
2024/03/06 02:17:25;;;;;;;;;;;;;;;-144.99;93.07;52484.78;5030667;28;19967;-74
2024/03/06 02:19:52;;;;;;;;;;;;;;;-144.99;93.33;52492.94;5035514;28;19929;-74
2024/03/06 02:22:20;;;;;;;;;;;;;;;-144.99;93.16;52468.47;5034638;28;20043;-74
2024/03/06 02:24:49;;;;;;;;;;;;;;;-144.99;93.26;52497.00;5039369;28;19928;-73
2024/03/06 02:27:16;;;;;;;;;;;;;;;-144.99;93.25;52472.56;5043335;28;19968;-74
2024/03/06 02:29:43;;;;;;;;;;;;;;;-144.99;93.34;52509.25;5036138;28;19925;-75
2024/03/06 02:32:10;;;;;;;;;;;;;;;-144.99;93.47;52480.72;5037197;28;19925;-74
2024/03/06 02:34:36;;;;;;;;;;;;;;;-144.99;93.32;52529.63;5037608;28;20488;-74
2024/03/06 02:37:02;;;;;;;;;;;;;;;-144.99;93.35;52492.94;5055826;28;19964;-75
2024/03/06 02:39:30;;;;;;;;;;;;;;;-144.99;93.45;52497.00;5062888;28;19913;-76
2024/03/06 02:41:57;;;;;;;;;;;;;;;-144.99;93.39;52515.34;5047893;28;19929;-74
2024/03/06 02:44:23;;;;;;;;;;;;;;;-144.99;93.52;52497.00;5040901;28;20408;-73
2024/03/06 02:46:49;;;;;;;;;;;;;;;-144.99;93.54;52490.91;5040880;28;20429;-75
2024/03/06 02:49:16;;;;;;;;;;;;;;;-144.99;93.63;52501.09;5045196;28;19929;-75
2024/03/06 02:51:43;;;;;;;;;;;;;;;-144.99;93.86;52488.84;5039972;28;20324;-75
2024/03/06 02:54:09;;;;;;;;;;;;;;;-144.99;94.18;52492.94;5047456;28;20475;-75
2024/03/06 02:56:37;;;;;;;;;;;;;;;-144.99;93.94;52515.34;5038071;28;19925;-74
2024/03/06 02:59:04;;;;;;;;;;;;;;;-144.99;93.85;52509.25;5042499;28;20424;-77
2024/03/06 03:01:30;;;;;;;;;;;;;;;-144.99;93.75;52521.47;5043374;28;19925;-74
2024/03/06 03:03:57;;;;;;;;;;;;;;;-144.99;94.20;52484.78;5035355;28;19932;-75
2024/03/06 03:06:24;;;;;;;;;;;;;;;-144.99;94.04;52480.72;5035403;28;19989;-75
2024/03/06 03:08:50;;;;;;;;;;;;;;;-144.99;93.85;52448.09;5036279;28;19925;-75
2024/03/06 03:11:17;;;;;;;;;;;;;;;-144.99;94.06;52497.00;5036177;28;19929;-75
2024/03/06 03:13:45;;;;;;;;;;;;;;;-144.99;93.91;52554.09;5035506;28;20436;-77
2024/03/06 03:16:17;;;;;;;;;;;;;;;-144.99;93.93;52476.63;5043033;28;20320;-75
2024/03/06 03:18:44;;;;;;;;;;;;;;;-144.99;93.96;52509.25;5035371;28;19925;-75
2024/03/06 03:21:11;;;;;;;;;;;;;;;-144.99;93.93;52497.00;5047395;28;19995;-76
2024/03/06 03:23:37;;;;;;;;;;;;;;;-144.99;94.04;52497.00;5066448;28;19952;-77
2024/03/06 03:26:04;;;;;;;;;;;;;;;-144.99;93.89;52501.09;5063893;28;19924;-76
2024/03/06 03:28:31;;;;;;;;;;;;;;;-144.99;93.82;52488.84;5056600;28;19984;-75
2024/03/06 03:30:59;;;;;;;;;;;;;;;-144.99;93.80;52513.31;5058402;28;19959;-76
2024/03/06 03:33:25;;;;;;;;;;;;;;;-144.99;93.74;52476.63;5054198;28;19936;-74
2024/03/06 03:35:52;;;;;;;;;;;;;;;-144.99;93.68;52488.84;5049200;28;19925;-75
2024/03/06 03:38:18;;;;;;;;;;;;;;;-144.99;93.65;52488.84;5040740;28;20528;-76
2024/03/06 03:40:44;;;;;;;;;;;;;;;-144.99;93.52;52505.16;5035648;28;19968;-75
2024/03/06 03:43:11;;;;;;;;;;;;;;;-144.99;93.82;52490.91;5035087;28;20024;-75
2024/03/06 03:45:38;;;;;;;;;;;;;;;-144.99;93.59;52497.00;5049216;28;20020;-75
2024/03/06 03:48:06;;;;;;;;;;;;;;;-144.99;93.33;52486.81;5045514;28;20448;-75
2024/03/06 03:50:33;;;;;;;;;;;;;;;-144.99;93.43;52517.41;5034588;28;19925;-75
2024/03/06 03:53:00;;;;;;;;;;;;;;;-144.99;93.34;52497.00;5043391;28;19924;-74
2024/03/06 03:55:27;;;;;;;;;;;;;;;-144.99;93.36;52476.63;5045488;28;19928;-74
2024/03/06 03:57:53;;;;;;;;;;;;;;;-144.99;93.26;52484.78;5035305;28;20366;-74
2024/03/06 04:00:20;;;;;;;;;;;;;;;-144.99;93.14;52509.25;5034778;28;20437;-74
2024/03/06 04:02:46;;;;;;;;;;;;;;;-144.99;93.19;52505.16;5042326;28;19928;-74
2024/03/06 04:05:14;;;;;;;;;;;;;;;-144.99;93.22;52492.94;5044340;28;19964;-74
2024/03/06 04:07:41;;;;;;;;;;;;;;;-144.99;93.30;52464.41;5033324;28;19987;-74
2024/03/06 04:10:10;;;;;;;;;;;;;;;-144.99;93.19;52497.00;5034841;28;19975;-74
2024/03/06 04:12:37;;;;;;;;;;;;;;;-144.99;93.38;52521.47;5037184;28;20419;-74
2024/03/06 04:15:03;;;;;;;;;;;;;;;-144.99;93.49;52521.47;5040166;28;19968;-74
2024/03/06 04:17:30;;;;;;;;;;;;;;;-144.99;93.45;52517.41;5038464;28;20017;-76
2024/03/06 04:19:56;;;;;;;;;;;;;;;-144.99;93.52;52505.16;5038220;28;19929;-75
2024/03/06 04:22:24;;;;;;;;;;;;;;;-144.99;93.87;52501.09;5034878;28;19925;-74
2024/03/06 04:24:51;;;;;;;;;;;;;;;-144.99;93.87;52472.56;5034369;28;20019;-74
2024/03/06 04:27:17;;;;;;;;;;;;;;;-144.99;93.96;52509.25;5036128;28;20373;-75
2024/03/06 04:29:44;;;;;;;;;;;;;;;-144.99;93.87;52509.25;5042658;28;19925;-75
2024/03/06 04:32:10;;;;;;;;;;;;;;;-144.99;94.09;52531.66;5043471;28;19929;-75
2024/03/06 04:34:37;;;;;;;;;;;;;;;-144.99;94.08;52527.59;5039098;28;19928;-75
2024/03/06 04:37:03;;;;;;;;;;;;;;;-144.99;94.24;52492.94;5035970;28;20444;-75
2024/03/06 04:39:32;;;;;;;;;;;;;;;-144.99;94.30;52476.63;5035780;28;20851;-76
2024/03/06 04:41:59;;;;;;;;;;;;;;;-144.99;94.18;52521.47;5032757;28;20341;-75
2024/03/06 04:44:25;;;;;;;;;;;;;;;-144.99;94.74;52515.34;5038311;28;20375;-76
2024/03/06 04:46:52;;;;;;;;;;;;;;;-144.99;94.94;52517.41;5035634;28;19929;-75
2024/03/06 04:49:18;;;;;;;;;;;;;;;-144.99;94.73;52468.47;5033636;28;20040;-75
2024/03/06 04:51:45;;;;;;;;;;;;;;;-144.99;94.71;52513.31;5036951;28;20003;-74
2024/03/06 04:54:11;;;;;;;;;;;;;;;-144.99;94.99;52545.94;5043468;28;19925;-74
2024/03/06 04:56:39;;;;;;;;;;;;;;;-144.99;94.74;52503.13;5039606;28;19968;-75
2024/03/06 04:59:05;;;;;;;;;;;;;;;-144.99;94.95;52464.41;5044705;28;19965;-75
2024/03/06 05:01:31;;;;;;;;;;;;;;;-144.99;94.75;52513.31;5042003;28;19936;-76
2024/03/06 05:03:58;;;;;;;;;;;;;;;-144.99;95.00;52537.78;5042090;28;19968;-76
2024/03/06 05:06:24;;;;;;;;;;;;;;;-144.99;94.96;52537.78;5034151;28;19928;-76
2024/03/06 05:08:51;;;;;;;;;;;;;;;-144.99;94.88;52543.91;5035309;28;19929;-75
2024/03/06 05:11:19;;;;;;;;;;;;;;;-144.99;94.84;52501.09;5036078;28;20196;-75
2024/03/06 05:13:47;;;;;;;;;;;;;;;-144.99;95.00;52492.94;5033871;28;19955;-75
2024/03/06 05:16:13;;;;;;;;;;;;;;;-144.99;95.01;52497.00;5039656;28;19956;-75
2024/03/06 05:18:40;;;;;;;;;;;;;;;-144.99;95.15;52509.25;5030695;28;20389;-75
2024/03/06 05:21:06;;;;;;;;;;;;;;;-144.99;95.10;52511.28;5045578;22;19933;-71
2024/03/06 05:23:33;;;;;;;;;;;;;;;-144.99;95.30;52472.56;5033582;28;19924;-73
2024/03/06 05:26:00;;;;;;;;;;;;;;;-144.99;95.19;52497.00;5031079;28;19982;-73
2024/03/06 05:28:26;;;;;;;;;;;;;;;-144.99;95.13;52497.00;5027830;28;20406;-72
2024/03/06 05:30:54;;;;;;;;;;;;;;;-144.99;95.32;52525.56;5030433;28;19994;-73
2024/03/06 05:33:21;;;;;;;;;;;;;;;-144.99;95.32;52525.56;5038278;28;19987;-72
2024/03/06 05:35:48;;;;;;;;;;;;;;;-144.99;95.28;52533.69;5029005;28;20426;-72
2024/03/06 05:38:14;;;;;;;;;;;;;;;-144.99;95.33;52513.31;5034146;28;19925;-73
2024/03/06 05:40:45;;;;;;;;;;;;;;;-144.99;95.39;52533.69;5032670;28;19960;-66
2024/03/06 05:43:12;;;;;;;;;;;;;;;-144.99;95.50;52545.94;5033163;28;19935;-71
2024/03/06 05:45:38;;;;;;;;;;;;;;;-144.99;95.74;52490.91;5027871;28;19933;-68
2024/03/06 05:48:07;;;;;;;;;;;;;;;-144.99;96.29;52537.78;5027107;28;19929;-69
2024/03/06 05:50:33;;;;;;;;;;;;;;;-144.99;96.60;52509.25;5027555;28;19956;-69
2024/03/06 05:52:59;;;;;;;;;;;;;;;-144.99;97.23;52492.94;5027671;28;19929;-69
2024/03/06 05:55:26;;;;;;;;;;;;;;;-144.99;97.79;52525.56;5035800;28;20064;-70
2024/03/06 05:57:53;;;;;;;;;;;;;;;-144.99;98.11;52501.09;5027632;28;19933;-70
2024/03/06 06:00:21;;;;;;;;;;;;;;;-144.99;98.35;52492.94;5033277;28;20193;-70
2024/03/06 06:02:48;;;;;;;;;;;;;;;-144.99;98.59;52525.56;5034602;28;19932;-69
2024/03/06 06:05:19;;;;;;;;;;;;;;;-144.99;98.59;52494.97;5033468;28;20067;-69
2024/03/06 06:07:46;;;;;;;;;;;;;;;-144.99;99.18;52529.63;5037409;28;19925;-70
2024/03/06 06:10:12;;;;;;;;;;;;;;;-144.99;99.46;52501.09;5030755;28;19957;-70
2024/03/06 06:12:39;;;;;;;;;;;;;;;-144.99;99.66;52480.72;5019535;28;20399;-70
2024/03/06 06:15:07;;;;;;;;;;;;;;;-144.99;100.00;52509.25;5025097;28;19929;-70
2024/03/06 06:17:33;;;;;;;;;;;;;;;-144.99;99.92;52509.25;5020385;28;19925;-70
2024/03/06 06:20:00;;;;;;;;;;;;;;;-144.99;99.57;52515.34;5032950;28;20002;-73
2024/03/06 06:22:29;;;;;;;;;;;;;;;-144.99;99.26;52505.16;5029573;28;19929;-74
2024/03/06 06:24:56;;;;;;;;;;;;;;;-144.99;99.25;52476.63;5030865;28;19968;-74
2024/03/06 06:27:25;;;;;;;;;;;;;;;-144.99;99.06;52476.63;5032928;28;19956;-73
2024/03/06 06:29:51;;;;;;;;;;;;;;;-144.99;98.95;52497.00;5032570;28;20405;-73
2024/03/06 06:32:18;;;;;;;;;;;;;;;-144.99;98.84;52503.13;5026967;28;20139;-71
2024/03/06 06:34:45;;;;;;;;;;;;;;;-144.99;98.82;52505.16;4680881;28;10000037;-71
2024/03/06 06:37:12;;;;;;;;;;;;;;;-144.99;98.39;52505.16;5033505;28;20052;-70
2024/03/06 06:39:40;;;;;;;;;;;;;;;-144.99;98.02;52478.66;5024593;28;19964;-70
2024/03/06 06:42:06;;;;;;;;;;;;;;;-144.99;97.54;52464.41;5031348;28;19980;-70
2024/03/06 06:44:33;;;;;;;;;;;;;;;-144.99;96.94;52501.09;5030074;28;20067;-71
2024/03/06 06:46:59;;;;;;;;;;;;;;;-144.99;96.73;52533.69;5021790;28;19980;-70
2024/03/06 06:49:26;;;;;;;;;;;;;;;-144.99;96.11;52497.00;5029250;28;20021;-70
2024/03/06 06:51:52;;;;;;;;;;;;;;;-144.99;95.70;52476.63;5029095;28;19932;-70
2024/03/06 06:54:19;;;;;;;;;;;;;;;-144.99;95.30;52497.00;5028315;28;20082;-71
2024/03/06 06:56:46;;;;;;;;;;;;;;;-144.99;95.11;52488.84;5029009;28;20020;-71
2024/03/06 06:59:13;;;;;;;;;;;;;;;-144.99;94.87;52464.41;5034134;28;19933;-71
2024/03/06 07:01:41;;;;;;;;;;;;;;;-144.99;94.39;52456.25;5029793;28;19929;-70
2024/03/06 07:04:08;;;;;;;;;;;;;;;-144.99;94.17;52480.72;5031748;28;20279;-70
2024/03/06 07:06:34;;;;;;;;;;;;;;;-144.99;93.71;52513.31;5026002;28;19956;-71
2024/03/06 07:09:01;;;;;;;;;;;;;;;-144.99;93.22;52476.63;5031270;28;19991;-70
2024/03/06 07:11:28;;;;;;;;;;;;;;;-144.99;92.56;52450.13;5024888;28;20199;-71
2024/03/06 07:13:56;;;;;;;;;;;;;;;-144.99;91.67;52452.16;5031332;28;19986;-70
2024/03/06 07:16:22;;;;;;;;;;;;;;;-144.99;91.72;52484.78;5032443;28;19924;-70
2024/03/06 07:18:49;;;;;;;;;;;;;;;-144.99;90.93;52497.00;5028470;28;19926;-70
2024/03/06 07:21:16;;;;;;;;;;;;;;;-144.99;90.63;52480.72;5028057;28;19972;-70
2024/03/06 07:23:42;;;;;;;;;;;;;;;-144.99;90.16;52533.69;5032310;28;19928;-70
2024/03/06 07:26:08;;;;;;;;;;;;;;;-144.99;88.61;52484.78;5026334;28;20028;-70
2024/03/06 07:28:35;;;;;;;;;;;;;;;-144.99;88.28;52484.78;5030864;28;19959;-69
2024/03/06 07:31:03;;;;;;;;;;;;;;;-144.99;88.11;52484.78;5028130;28;19936;-69
2024/03/06 07:33:33;;;;;;;;;;;;;;;-144.99;86.59;52492.94;5026587;28;19929;-69
2024/03/06 07:36:00;;;;;;;;;;;;;;;-144.99;86.37;52444.03;5034050;28;19925;-70
2024/03/06 07:38:26;;;;;;;;;;;;;;;-144.99;84.25;52458.28;5035541;28;20454;-70
2024/03/06 07:40:53;;;;;;;;;;;;;;;-144.99;85.05;52484.78;5041023;28;19929;-70
2024/03/06 07:43:19;;;;;;;;;;;;;;;-144.99;84.28;52452.16;5027236;28;20327;-70
2024/03/06 07:45:47;;;;;;;;;;;;;;;-144.99;83.46;52409.38;5027510;28;20358;-70
2024/03/06 07:48:15;;;;;;;;;;;;;;;-144.99;82.95;52456.25;5033274;28;20037;-70
2024/03/06 07:50:41;;;;;;;;;;;;;;;-144.99;82.95;52476.63;5032109;28;20342;-70
2024/03/06 07:53:08;;;;;;;;;;;;;;;-144.99;81.46;52427.72;5031136;28;19933;-70
2024/03/06 07:55:34;;;;;;;;;;;;;;;-144.99;80.98;52456.25;5037228;28;20339;-70
2024/03/06 07:58:01;;;;;;;;;;;;;;;-144.99;81.05;52464.41;5032158;28;20009;-70
2024/03/06 08:00:27;;;;;;;;;;;;;;;-144.99;80.54;52466.44;5036645;28;20011;-70
2024/03/06 08:02:54;;;;;;;;;;;;;;;-144.99;80.11;52431.78;5028574;28;20387;-70
2024/03/06 08:05:22;;;;;;;;;;;;;;;-144.99;79.07;52444.03;5029668;28;19928;-70
2024/03/06 08:07:48;;;;;;;;;;;;;;;-144.99;78.51;52446.06;5028959;28;19965;-70
2024/03/06 08:10:16;;;;;;;;;;;;;;;-144.99;77.44;52444.03;5036028;28;20023;-70
2024/03/06 08:12:44;;;;;;;;;;;;;;;-144.99;77.64;52494.97;5027069;28;19967;-70
2024/03/06 08:15:12;;;;;;;;;;;;;;;-144.99;77.75;52460.31;5034191;28;19972;-70
2024/03/06 08:17:39;;;;;;;;;;;;;;;-144.99;77.33;52444.03;5018387;28;20432;-70
2024/03/06 08:20:07;;;;;;;;;;;;;;;-144.99;77.24;52446.06;5031985;28;20113;-71
2024/03/06 08:22:38;;;;;;;;;;;;;;;-144.99;76.89;52478.66;5031737;28;20413;-71
2024/03/06 08:25:05;;;;;;;;;;;;;;;-144.99;76.69;52464.41;5043641;28;19997;-71
2024/03/06 08:27:32;;;;;;;;;;;;;;;-144.99;76.54;52452.16;5027511;28;19933;-70
2024/03/06 08:29:58;;;;;;;;;;;;;;;-144.99;76.09;52503.13;5038039;28;20474;-70
2024/03/06 08:32:24;;;;;;;;;;;;;;;-144.99;75.04;52419.56;5027090;28;20366;-70
2024/03/06 08:34:51;;;;;;;;;;;;;;;-144.99;74.41;52456.25;5029164;28;19929;-70
2024/03/06 08:37:17;;;;;;;;;;;;;;;-144.99;74.31;52431.78;5026369;28;20014;-70
2024/03/06 08:39:45;;;;;;;;;;;;;;;-144.99;73.69;52460.31;5029692;28;20374;-70
2024/03/06 08:42:12;;;;;;;;;;;;;;;-144.99;73.23;52476.63;5030865;28;19964;-70
2024/03/06 08:44:38;;;;;;;;;;;;;;;-144.99;73.34;52435.88;5030037;28;20411;-70
2024/03/06 08:47:05;;;;;;;;;;;;;;;-144.99;72.79;52448.09;5031690;28;20330;-70
2024/03/06 08:49:31;;;;;;;;;;;;;;;-144.99;72.21;52427.72;5031164;28;20036;-70
2024/03/06 08:51:58;;;;;;;;;;;;;;;-144.99;71.32;52458.28;5026789;28;20027;-70
2024/03/06 08:54:25;;;;;;;;;;;;;;;-144.99;71.20;52458.28;5021279;28;19928;-71
2024/03/06 08:56:57;;;;;;;;;;;;;;;-144.99;70.35;52411.41;5027069;28;19975;-71
2024/03/06 08:59:24;;;;;;;;;;;;;;;-144.99;69.13;52480.72;5028197;28;19963;-71
2024/03/06 09:01:53;;;;;;;;;;;;;;;-144.99;69.88;52391.03;5031906;28;20011;-71
2024/03/06 09:04:20;;;;;;;;;;;;;;;-144.99;70.28;52419.56;5029182;28;19929;-71
2024/03/06 09:06:46;;;;;;;;;;;;;;;-144.99;69.59;52441.97;5029372;28;19972;-71
2024/03/06 09:09:14;;;;;;;;;;;;;;;-144.99;69.94;52417.53;5030228;28;20331;-70
2024/03/06 09:11:41;;;;;;;;;;;;;;;-144.99;69.03;52419.56;5025102;28;20302;-71
2024/03/06 09:14:10;;;;;;;;;;;;;;;-144.99;69.45;52421.59;5028886;28;20472;-71
2024/03/06 09:16:36;;;;;;;;;;;;;;;-144.99;69.11;52456.25;5023851;28;20327;-71
2024/03/06 09:19:03;;;;;;;;;;;;;;;-144.99;69.16;52423.63;5027020;28;20382;-69
2024/03/06 09:21:29;;;;;;;;;;;;;;;-144.99;69.40;52456.25;5030412;28;20339;-70
2024/03/06 09:23:56;;;;;;;;;;;;;;;-144.99;69.59;52448.09;5034882;28;19924;-69
2024/03/06 09:26:22;;;;;;;;;;;;;;;-144.99;68.67;52441.97;5030706;28;19958;-71
2024/03/06 09:28:49;;;;;;;;;;;;;;;-144.99;68.34;52488.84;5031390;28;19929;-70
2024/03/06 09:31:17;;;;;;;;;;;;;;;-144.99;68.16;52474.59;5029009;28;20291;-70
2024/03/06 09:33:46;;;;;;;;;;;;;;;-144.99;68.37;52476.63;5022766;28;19983;-71
2024/03/06 09:36:14;;;;;;;;;;;;;;;-144.99;68.64;52468.47;5031301;28;20430;-70
2024/03/06 09:38:40;;;;;;;;;;;;;;;-144.99;68.37;52386.94;5034988;28;19937;-71
2024/03/06 09:41:08;;;;;;;;;;;;;;;-144.99;67.47;52441.97;5023967;28;20742;-70
2024/03/06 09:43:34;;;;;;;;;;;;;;;-144.99;65.73;52425.66;5027493;28;20660;-70
2024/03/06 09:46:02;;;;;;;;;;;;;;;-144.99;65.21;52374.72;5027940;28;20395;-73
2024/03/06 09:48:30;;;;;;;;;;;;;;;-144.99;64.33;52403.25;5025361;28;19929;-70
2024/03/06 09:51:01;;;;;;;;;;;;;;;-144.99;64.06;52415.47;5029566;28;19929;-71
2024/03/06 09:53:27;;;;;;;;;;;;;;;-144.99;64.71;52391.03;5020576;28;19952;-71
2024/03/06 09:55:54;;;;;;;;;;;;;;;-144.99;64.49;52397.13;5024853;28;19975;-71
2024/03/06 09:58:21;;;;;;;;;;;;;;;-144.99;64.17;52403.25;5029278;28;19991;-70
2024/03/06 10:00:48;;;;;;;;;;;;;;;-144.99;63.60;52378.78;5022037;28;19939;-70
2024/03/06 10:03:15;;;;;;;;;;;;;;;-144.99;63.13;52362.50;5033101;28;20221;-71
2024/03/06 10:05:43;;;;;;;;;;;;;;;-144.99;63.42;52372.69;5022855;28;19945;-70
2024/03/06 10:08:10;;;;;;;;;;;;;;;-144.99;62.74;52374.72;5024999;28;19933;-73
2024/03/06 10:10:36;;;;;;;;;;;;;;;-144.99;62.16;52382.88;5022951;28;19935;-71
2024/03/06 10:13:03;;;;;;;;;;;;;;;-144.99;61.86;52356.38;5024924;28;19939;-72
2024/03/06 10:15:30;;;;;;;;;;;;;;;-144.99;61.66;52323.75;5029600;28;20023;-71
2024/03/06 10:18:11;;;;;;;;;;;;;;;-144.99;61.68;52346.19;5025355;28;20023;-70
2024/03/06 10:20:37;;;;;;;;;;;;;;;-144.99;60.50;52350.25;5022769;28;20014;-70
2024/03/06 10:23:05;;;;;;;;;;;;;;;-144.99;59.08;52313.56;5027841;28;19925;-71
2024/03/06 10:25:31;;;;;;;;;;;;;;;-144.99;58.67;52311.53;5030580;28;20028;-72
2024/03/06 10:28:05;;;;;;;;;;;;;;;-144.99;57.76;52285.03;5033556;28;19975;-71
2024/03/06 10:30:32;;;;;;;;;;;;;;;-144.99;56.34;52280.97;5035445;28;19929;-71
2024/03/06 10:32:59;;;;;;;;;;;;;;;-144.99;55.80;52227.97;5032740;28;20743;-71
2024/03/06 10:35:26;;;;;;;;;;;;;;;-144.99;55.49;52272.81;5027955;28;19932;-71
2024/03/06 10:37:54;;;;;;;;;;;;;;;-144.99;55.01;52232.03;5030890;28;19979;-71
2024/03/06 10:40:23;;;;;;;;;;;;;;;-144.99;54.83;52223.88;5031987;28;20565;-70
2024/03/06 10:42:51;;;;;;;;;;;;;;;-144.99;53.94;52199.44;5028940;28;20065;-70
2024/03/06 10:45:17;;;;;;;;;;;;;;;-144.99;53.19;52219.81;5027692;28;19929;-72
2024/03/06 10:47:47;;;;;;;;;;;;;;;-144.99;52.90;52203.50;5023619;28;19929;-72
2024/03/06 10:50:15;;;;;;;;;;;;;;;-144.99;52.74;52203.50;5031199;28;20284;-72
2024/03/06 10:52:41;;;;;;;;;;;;;;;-144.99;52.73;52215.75;5023746;28;20059;-73
2024/03/06 10:55:10;;;;;;;;;;;;;;;-144.99;52.49;52203.50;5040563;28;19933;-70
2024/03/06 10:57:38;;;;;;;;;;;;;;;-144.99;52.67;52183.13;5031023;28;20526;-70
2024/03/06 11:00:06;;;;;;;;;;;;;;;-144.99;52.88;52183.13;5029155;28;19929;-70
2024/03/06 11:02:32;;;;;;;;;;;;;;;-144.99;53.24;52203.50;5028631;28;19933;-70
2024/03/06 11:04:59;;;;;;;;;;;;;;;-144.99;52.67;52174.97;5033952;28;20235;-72
2024/03/06 11:07:27;;;;;;;;;;;;;;;-144.99;51.75;52187.19;5019771;28;20012;-71
2024/03/06 11:09:54;;;;;;;;;;;;;;;-144.99;51.51;52301.34;5027897;28;19933;-71
2024/03/06 11:12:33;;;;;;;;;;;;;;;-144.99;52.71;52301.34;5033282;28;20024;-70
2024/03/06 11:15:03;;;;;;;;;;;;;;;-144.99;53.09;52203.50;5026905;28;19976;-70
2024/03/06 11:17:30;;;;;;;;;;;;;;;-144.99;52.80;52191.28;5027252;28;19940;-71
2024/03/06 11:20:14;;;;;;;;;;;;;;;-144.99;52.21;52162.75;5029468;28;20253;-70
2024/03/06 11:22:59;;;;;;;;;;;;;;;-144.99;51.63;52162.75;5034647;28;20290;-70
2024/03/06 11:25:44;;;;;;;;;;;;;;;-144.99;51.21;52152.56;5036383;28;20058;-71
2024/03/06 11:28:12;;;;;;;;;;;;;;;-144.99;50.69;52162.75;5032653;28;19979;-71
2024/03/06 11:30:46;;;;;;;;;;;;;;;-144.99;50.40;52162.75;5027085;28;20012;-70
2024/03/06 11:33:13;;;;;;;;;;;;;;;-144.99;50.18;52121.97;5036884;28;19929;-70
2024/03/06 11:35:44;;;;;;;;;;;;;;;-144.99;49.80;52130.13;5023322;28;20421;-71
2024/03/06 11:38:11;;;;;;;;;;;;;;;-144.99;49.96;52126.06;5029757;28;19952;-69
2024/03/06 11:40:44;;;;;;;;;;;;;;;-144.99;49.34;52085.31;5029683;28;19929;-70
2024/03/06 11:43:23;;;;;;;;;;;;;;;-144.99;48.58;52069.00;5033643;28;19929;-70
2024/03/06 11:45:51;;;;;;;;;;;;;;;-144.99;48.17;52093.44;5034453;28;20271;-70
2024/03/06 11:48:19;;;;;;;;;;;;;;;-144.99;47.59;52050.66;5029208;28;19929;-70
2024/03/06 11:50:45;;;;;;;;;;;;;;;-144.99;46.95;52077.16;5034381;28;19929;-70
2024/03/06 11:53:12;;;;;;;;;;;;;;;-144.99;46.93;52130.13;5028397;28;20366;-71
2024/03/06 11:55:39;;;;;;;;;;;;;;;-144.99;47.10;52105.69;5036364;28;19967;-70
2024/03/06 11:58:07;;;;;;;;;;;;;;;-144.99;47.36;52056.78;5030149;28;20327;-70
2024/03/06 12:00:34;;;;;;;;;;;;;;;-144.99;47.34;52054.72;5026454;28;19935;-70
2024/03/06 12:03:04;;;;;;;;;;;;;;;-144.99;47.21;52040.47;5030074;28;20008;-69
2024/03/06 12:05:30;;;;;;;;;;;;;;;-144.99;46.25;52032.31;5029283;28;19929;-71
2024/03/06 12:07:57;;;;;;;;;;;;;;;-144.99;46.02;52044.53;5029783;28;19947;-70
2024/03/06 12:10:23;;;;;;;;;;;;;;;-144.99;46.33;52036.38;5032123;28;20346;-70
2024/03/06 12:12:50;;;;;;;;;;;;;;;-144.99;47.50;52105.69;5030062;28;19933;-69
2024/03/06 12:15:18;;;;;;;;;;;;;;;-144.99;46.86;52083.25;5032342;28;19929;-72
2024/03/06 12:17:46;;;;;;;;;;;;;;;-144.99;47.22;52056.78;5027437;28;19929;-70
2024/03/06 12:20:15;;;;;;;;;;;;;;;-144.99;46.84;52060.84;5027854;28;20051;-70
2024/03/06 12:22:45;;;;;;;;;;;;;;;-144.99;46.83;52081.22;5027478;28;19933;-71
2024/03/06 12:25:18;;;;;;;;;;;;;;;-144.99;47.52;52109.75;5027099;28;19925;-69